Inland Seas — WCJ6214 — position and weather

sailwx.info

Track history (hours):
 
Tides and Currents Weather Stations Pressure Air Temp Water Temp Dewpoint Dewpoint Depression Visibility Wind Speed Wind Dir Waves Ship Positions

Inland Seas

Provides summer shipboard experiences for all ages on Grand Traverse Bay and Lake Michigan.

Ship's website: http://www.schoolship.org/

Owner: INLAND SEAS EDUCATION ASSOCIATION, SUTTONS BAY, MI. More information available from US FCC via Universal Licensing System and Coast Guard Vessel Documentation Center.

Last reported at 2017-Jul-17 14:18 UTC. Time now 2017-Jul-28 06:34 UTC.
Position N 45°48' W 085°02'.
Warning: this ship's position is 10 days out of date.

Length 19 m.

Type: Sailing vessel. MMSI: 366615350.

Date/timePositionNaut miles runAvg speedWind from/ knotsBaromVisibWave heightAir tempDewpointWater temp
2017-Jul-17 14:18N 45°48' W 085°02'3 7.4
2017-Jul-17 13:55N 45°48' W 084°58'4 7.5
2017-Jul-17 13:24N 45°48' W 084°52'3 7.6
2017-Jul-17 12:59N 45°49' W 084°48'4 6.6
2017-Jul-17 12:27N 45°50' W 084°43'2 3.3
2017-Jul-17 11:47N 45°52' W 084°43'0 0.0
2017-Jul-17 09:59N 45°52' W 084°43'0 0.0
2017-Jul-17 09:05N 45°52' W 084°43'0 0.0
2017-Jul-17 08:44N 45°52' W 084°43'0 0.0
2017-Jul-17 08:23N 45°52' W 084°43'0 0.0
2017-Jul-17 07:50N 45°52' W 084°43'0 0.0
2017-Jul-17 07:26N 45°52' W 084°43'0 0.0
2017-Jul-17 06:56N 45°52' W 084°43'0 0.0
2017-Jul-17 06:26N 45°52' W 084°43'0 0.0
2017-Jul-17 05:47N 45°52' W 084°43'0 0.0
2017-Jul-17 05:05N 45°52' W 084°43'0 0.0
2017-Jul-17 04:47N 45°52' W 084°43'0 0.0
2017-Jul-17 04:29N 45°52' W 084°43'0 0.0
2017-Jul-17 03:53N 45°52' W 084°43'0 0.0
2017-Jul-17 02:59N 45°52' W 084°43'0 0.0
2017-Jul-17 01:44N 45°52' W 084°43'0 0.0
2017-Jul-17 00:50N 45°52' W 084°43'0 0.0
2017-Jul-17 00:23N 45°52' W 084°43'0 0.0
2017-Jul-16 23:56N 45°52' W 084°43'0 0.0
2017-Jul-16 22:53N 45°52' W 084°43'0 0.0
2017-Jul-16 20:53N 45°52' W 084°43'0 0.0
2017-Jul-16 18:13N 45°52' W 084°43'0 0.9
2017-Jul-16 17:58N 45°52' W 084°43'1 1.1
2017-Jul-16 17:27N 45°52' W 084°42'1 0.8
2017-Jul-16 16:47N 45°52' W 084°42'1 2.1
2017-Jul-16 16:30N 45°51' W 084°42'2 4.2
2017-Jul-16 15:56N 45°49' W 084°43'3 6.2
2017-Jul-16 15:25N 45°50' W 084°48'3 6.5
2017-Jul-16 14:59N 45°52' W 084°51'0 0.8
2017-Jul-16 14:21N 45°52' W 084°52'1 1.2
2017-Jul-16 13:56N 45°52' W 084°51'1 0.2
2017-Jul-16 11:15N 45°51' W 084°52'0 0.0
2017-Jul-16 10:57N 45°51' W 084°52'0 0.0
2017-Jul-16 10:24N 45°51' W 084°52'0 0.0
2017-Jul-16 09:24N 45°51' W 084°52'0 0.0
2017-Jul-16 08:51N 45°51' W 084°52'0 0.0
2017-Jul-16 08:27N 45°51' W 084°52'0 0.0
2017-Jul-16 07:57N 45°51' W 084°52'0 0.0
2017-Jul-16 07:21N 45°51' W 084°52'0 0.0
2017-Jul-16 06:57N 45°51' W 084°52'0 0.0
2017-Jul-16 06:27N 45°51' W 084°52'0 0.0
2017-Jul-16 05:45N 45°51' W 084°52'0 0.0
2017-Jul-16 05:27N 45°51' W 084°52'0 0.0
2017-Jul-16 04:57N 45°51' W 084°52'0 0.0
2017-Jul-16 04:18N 45°51' W 084°52'0 0.0
2017-Jul-16 03:57N 45°51' W 084°52'0 0.0
2017-Jul-16 03:30N 45°51' W 084°52'0 0.0
2017-Jul-16 02:48N 45°51' W 084°52'0 0.0
2017-Jul-16 02:21N 45°51' W 084°52'0 0.0
2017-Jul-16 02:00N 45°51' W 084°52'0 0.0
2017-Jul-16 01:27N 45°51' W 084°52'0 0.0
2017-Jul-16 00:57N 45°51' W 084°52'0 0.0
2017-Jul-16 00:30N 45°51' W 084°52'0 0.0
2017-Jul-15 23:06N 45°51' W 084°52'0 0.0
2017-Jul-15 22:57N 45°51' W 084°52'0 0.0
2017-Jul-15 22:30N 45°51' W 084°52'0 0.0
2017-Jul-15 21:56N 45°51' W 084°52'0 1.0
2017-Jul-15 21:29N 45°52' W 084°52'3 5.4
2017-Jul-15 21:00N 45°50' W 084°48'3 6.8
2017-Jul-15 20:30N 45°48' W 084°44'1 2.1
2017-Jul-15 19:59N 45°49' W 084°43'2 4.0
2017-Jul-15 19:28N 45°47' W 084°41'1 3.1
2017-Jul-15 19:00N 45°48' W 084°39'3 5.0
2017-Jul-15 18:30N 45°50' W 084°38'1 1.7
2017-Jul-15 17:57N 45°51' W 084°37'0 0.5
2017-Jul-15 17:29N 45°50' W 084°37'1 1.1
2017-Jul-15 16:58N 45°50' W 084°36'2 3.0
2017-Jul-15 16:27N 45°52' W 084°35'3 7.1
2017-Jul-15 16:00N 45°55' W 084°35'3 1.1
2017-Jul-15 13:20N 45°58' W 084°36'0 0.0
2017-Jul-15 10:08N 45°58' W 084°36'0 0.1
2017-Jul-15 09:56N 45°58' W 084°36'0 0.1
2017-Jul-15 09:26N 45°58' W 084°36'0 0.0
2017-Jul-15 08:56N 45°58' W 084°36'0 0.0
2017-Jul-15 06:08N 45°58' W 084°36'0 0.0
2017-Jul-15 02:02N 45°58' W 084°36'0 0.1
2017-Jul-15 01:50N 45°58' W 084°36'0 0.1
2017-Jul-15 01:29N 45°58' W 084°36'0 0.8
2017-Jul-15 00:53N 45°58' W 084°36'1 2.2
2017-Jul-15 00:25N 45°58' W 084°35'1 1.5
2017-Jul-14 23:52N 45°57' W 084°36'1 3.2
2017-Jul-14 23:30N 45°56' W 084°35'3 5.0
2017-Jul-14 22:59N 45°56' W 084°31'5 0.1
2017-Jul-13 01:01N 46°00' W 084°26'0 2.9
2017-Jul-13 00:52N 45°60' W 084°26'1 2.0
2017-Jul-13 00:29N 45°59' W 084°27'1 0.4
2017-Jul-12 22:39N 45°59' W 084°26'1 0.1
2017-Jul-12 10:18N 46°00' W 084°26'0 0.0
2017-Jul-12 10:00N 46°00' W 084°26'0 0.0
2017-Jul-12 07:30N 46°00' W 084°26'0 0.0
2017-Jul-12 06:54N 46°00' W 084°26'0 0.0
2017-Jul-12 05:51N 46°00' W 084°26'0 0.0
2017-Jul-12 05:00N 46°00' W 084°26'0 0.0
2017-Jul-12 04:21N 46°00' W 084°26'0 0.0
2017-Jul-12 03:48N 46°00' W 084°26'0 0.0
2017-Jul-12 03:30N 46°00' W 084°26'0 0.0
2017-Jul-12 02:48N 46°00' W 084°26'0 0.0
2017-Jul-12 02:21N 46°00' W 084°26'0 0.0
2017-Jul-12 01:45N 46°00' W 084°26'0 0.0
2017-Jul-12 01:30N 46°00' W 084°26'0 0.0
2017-Jul-12 00:51N 46°00' W 084°26'0 0.0
2017-Jul-11 21:27N 46°00' W 084°26'0 0.1
2017-Jul-11 21:00N 46°00' W 084°26'1 1.2
2017-Jul-11 20:13N 45°59' W 084°27'1 3.1
2017-Jul-11 20:00N 45°59' W 084°26'0 0.3
2017-Jul-11 19:25N 45°59' W 084°26'0 0.2
2017-Jul-11 18:34N 45°59' W 084°26'0 0.1
2017-Jul-11 18:27N 45°59' W 084°26'1 0.5
2017-Jul-11 16:12N 46°00' W 084°26'0 0.0
2017-Jul-11 15:58N 46°00' W 084°26'0 1.0
2017-Jul-11 15:29N 45°60' W 084°25'0 0.2
2017-Jul-11 12:37N 46°00' W 084°26'0 0.0
2017-Jul-11 12:19N 46°00' W 084°26'0 0.0
2017-Jul-11 11:55N 46°00' W 084°26'0 0.0
2017-Jul-11 11:25N 46°00' W 084°26'0 0.0
2017-Jul-11 08:13N 46°00' W 084°26'0 0.0
2017-Jul-11 06:07N 46°00' W 084°26'0 0.0
2017-Jul-11 05:49N 46°00' W 084°26'0 0.0
2017-Jul-11 05:25N 46°00' W 084°26'0 0.0
2017-Jul-11 04:40N 46°00' W 084°26'0 0.0
2017-Jul-11 03:10N 46°00' W 084°26'0 0.0
2017-Jul-11 02:52N 46°00' W 084°26'0 0.0
2017-Jul-10 23:04N 46°00' W 084°26'0 0.0
2017-Jul-10 22:55N 46°00' W 084°26'0 0.0
2017-Jul-10 22:16N 46°00' W 084°26'0 0.1
2017-Jul-10 20:44N 45°60' W 084°26'0 1.2
2017-Jul-10 20:29N 46°00' W 084°26'1 1.2
2017-Jul-10 19:53N 45°59' W 084°26'0 0.3
2017-Jul-10 18:47N 45°59' W 084°26'0 1.1
2017-Jul-10 18:25N 45°59' W 084°26'13 0.4
2017-Jul-09 06:00N 45°48' W 084°36'14 0.6 270 / 81015.510.8 19.9 17.2
2017-Jul-08 08:00N 45°54' W 084°54'   050 / 181014.527.0 16.6 17.2
Track history (hours):
 
Tides and Currents Weather Stations Pressure Air Temp Water Temp Dewpoint Dewpoint Depression Visibility Wind Speed Wind Dir Waves Ship Positions

Inland Seas

Provides summer shipboard experiences for all ages on Grand Traverse Bay and Lake Michigan.

Ship's website: http://www.schoolship.org/

Owner: INLAND SEAS EDUCATION ASSOCIATION, SUTTONS BAY, MI. More information available from US FCC via Universal Licensing System and Coast Guard Vessel Documentation Center.

Last reported at 2017-Jul-17 14:18 UTC. Time now 2017-Jul-28 06:34 UTC.
Position N 45°48' W 085°02'.
Warning: this ship's position is 10 days out of date.

Length 19 m.

Type: Sailing vessel. MMSI: 366615350.

Date/timePositionNaut miles runAvg speedWind from/ knotsBaromVisibWave heightAir tempDewpointWater temp
2017-Jul-17 14:18N 45°48' W 085°02'3 7.4
2017-Jul-17 13:55N 45°48' W 084°58'4 7.5
2017-Jul-17 13:24N 45°48' W 084°52'3 7.6
2017-Jul-17 12:59N 45°49' W 084°48'4 6.6
2017-Jul-17 12:27N 45°50' W 084°43'2 3.3
2017-Jul-17 11:47N 45°52' W 084°43'0 0.0
2017-Jul-17 09:59N 45°52' W 084°43'0 0.0
2017-Jul-17 09:05N 45°52' W 084°43'0 0.0
2017-Jul-17 08:44N 45°52' W 084°43'0 0.0
2017-Jul-17 08:23N 45°52' W 084°43'0 0.0
2017-Jul-17 07:50N 45°52' W 084°43'0 0.0
2017-Jul-17 07:26N 45°52' W 084°43'0 0.0
2017-Jul-17 06:56N 45°52' W 084°43'0 0.0
2017-Jul-17 06:26N 45°52' W 084°43'0 0.0
2017-Jul-17 05:47N 45°52' W 084°43'0 0.0
2017-Jul-17 05:05N 45°52' W 084°43'0 0.0
2017-Jul-17 04:47N 45°52' W 084°43'0 0.0
2017-Jul-17 04:29N 45°52' W 084°43'0 0.0
2017-Jul-17 03:53N 45°52' W 084°43'0 0.0
2017-Jul-17 02:59N 45°52' W 084°43'0 0.0
2017-Jul-17 01:44N 45°52' W 084°43'0 0.0
2017-Jul-17 00:50N 45°52' W 084°43'0 0.0
2017-Jul-17 00:23N 45°52' W 084°43'0 0.0
2017-Jul-16 23:56N 45°52' W 084°43'0 0.0
2017-Jul-16 22:53N 45°52' W 084°43'0 0.0
2017-Jul-16 20:53N 45°52' W 084°43'0 0.0
2017-Jul-16 18:13N 45°52' W 084°43'0 0.9
2017-Jul-16 17:58N 45°52' W 084°43'1 1.1
2017-Jul-16 17:27N 45°52' W 084°42'1 0.8
2017-Jul-16 16:47N 45°52' W 084°42'1 2.1
2017-Jul-16 16:30N 45°51' W 084°42'2 4.2
2017-Jul-16 15:56N 45°49' W 084°43'3 6.2
2017-Jul-16 15:25N 45°50' W 084°48'3 6.5
2017-Jul-16 14:59N 45°52' W 084°51'0 0.8
2017-Jul-16 14:21N 45°52' W 084°52'1 1.2
2017-Jul-16 13:56N 45°52' W 084°51'1 0.2
2017-Jul-16 11:15N 45°51' W 084°52'0 0.0
2017-Jul-16 10:57N 45°51' W 084°52'0 0.0
2017-Jul-16 10:24N 45°51' W 084°52'0 0.0
2017-Jul-16 09:24N 45°51' W 084°52'0 0.0
2017-Jul-16 08:51N 45°51' W 084°52'0 0.0
2017-Jul-16 08:27N 45°51' W 084°52'0 0.0
2017-Jul-16 07:57N 45°51' W 084°52'0 0.0
2017-Jul-16 07:21N 45°51' W 084°52'0 0.0
2017-Jul-16 06:57N 45°51' W 084°52'0 0.0
2017-Jul-16 06:27N 45°51' W 084°52'0 0.0
2017-Jul-16 05:45N 45°51' W 084°52'0 0.0
2017-Jul-16 05:27N 45°51' W 084°52'0 0.0
2017-Jul-16 04:57N 45°51' W 084°52'0 0.0
2017-Jul-16 04:18N 45°51' W 084°52'0 0.0
2017-Jul-16 03:57N 45°51' W 084°52'0 0.0
2017-Jul-16 03:30N 45°51' W 084°52'0 0.0
2017-Jul-16 02:48N 45°51' W 084°52'0 0.0
2017-Jul-16 02:21N 45°51' W 084°52'0 0.0
2017-Jul-16 02:00N 45°51' W 084°52'0 0.0
2017-Jul-16 01:27N 45°51' W 084°52'0 0.0
2017-Jul-16 00:57N 45°51' W 084°52'0 0.0
2017-Jul-16 00:30N 45°51' W 084°52'0 0.0
2017-Jul-15 23:06N 45°51' W 084°52'0 0.0
2017-Jul-15 22:57N 45°51' W 084°52'0 0.0
2017-Jul-15 22:30N 45°51' W 084°52'0 0.0
2017-Jul-15 21:56N 45°51' W 084°52'0 1.0
2017-Jul-15 21:29N 45°52' W 084°52'3 5.4
2017-Jul-15 21:00N 45°50' W 084°48'3 6.8
2017-Jul-15 20:30N 45°48' W 084°44'1 2.1
2017-Jul-15 19:59N 45°49' W 084°43'2 4.0
2017-Jul-15 19:28N 45°47' W 084°41'1 3.1
2017-Jul-15 19:00N 45°48' W 084°39'3 5.0
2017-Jul-15 18:30N 45°50' W 084°38'1 1.7
2017-Jul-15 17:57N 45°51' W 084°37'0 0.5
2017-Jul-15 17:29N 45°50' W 084°37'1 1.1
2017-Jul-15 16:58N 45°50' W 084°36'2 3.0
2017-Jul-15 16:27N 45°52' W 084°35'3 7.1
2017-Jul-15 16:00N 45°55' W 084°35'3 1.1
2017-Jul-15 13:20N 45°58' W 084°36'0 0.0
2017-Jul-15 10:08N 45°58' W 084°36'0 0.1
2017-Jul-15 09:56N 45°58' W 084°36'0 0.1
2017-Jul-15 09:26N 45°58' W 084°36'0 0.0
2017-Jul-15 08:56N 45°58' W 084°36'0 0.0
2017-Jul-15 06:08N 45°58' W 084°36'0 0.0
2017-Jul-15 02:02N 45°58' W 084°36'0 0.1
2017-Jul-15 01:50N 45°58' W 084°36'0 0.1
2017-Jul-15 01:29N 45°58' W 084°36'0 0.8
2017-Jul-15 00:53N 45°58' W 084°36'1 2.2
2017-Jul-15 00:25N 45°58' W 084°35'1 1.5
2017-Jul-14 23:52N 45°57' W 084°36'1 3.2
2017-Jul-14 23:30N 45°56' W 084°35'3 5.0
2017-Jul-14 22:59N 45°56' W 084°31'5 0.1
2017-Jul-13 01:01N 46°00' W 084°26'0 2.9
2017-Jul-13 00:52N 45°60' W 084°26'1 2.0
2017-Jul-13 00:29N 45°59' W 084°27'1 0.4
2017-Jul-12 22:39N 45°59' W 084°26'1 0.1
2017-Jul-12 10:18N 46°00' W 084°26'0 0.0
2017-Jul-12 10:00N 46°00' W 084°26'0 0.0
2017-Jul-12 07:30N 46°00' W 084°26'0 0.0
2017-Jul-12 06:54N 46°00' W 084°26'0 0.0
2017-Jul-12 05:51N 46°00' W 084°26'0 0.0
2017-Jul-12 05:00N 46°00' W 084°26'0 0.0
2017-Jul-12 04:21N 46°00' W 084°26'0 0.0
2017-Jul-12 03:48N 46°00' W 084°26'0 0.0
2017-Jul-12 03:30N 46°00' W 084°26'0 0.0
2017-Jul-12 02:48N 46°00' W 084°26'0 0.0
2017-Jul-12 02:21N 46°00' W 084°26'0 0.0
2017-Jul-12 01:45N 46°00' W 084°26'0 0.0
2017-Jul-12 01:30N 46°00' W 084°26'0 0.0
2017-Jul-12 00:51N 46°00' W 084°26'0 0.0
2017-Jul-11 21:27N 46°00' W 084°26'0 0.1
2017-Jul-11 21:00N 46°00' W 084°26'1 1.2
2017-Jul-11 20:13N 45°59' W 084°27'1 3.1
2017-Jul-11 20:00N 45°59' W 084°26'0 0.3
2017-Jul-11 19:25N 45°59' W 084°26'0 0.2
2017-Jul-11 18:34N 45°59' W 084°26'0 0.1
2017-Jul-11 18:27N 45°59' W 084°26'1 0.5
2017-Jul-11 16:12N 46°00' W 084°26'0 0.0
2017-Jul-11 15:58N 46°00' W 084°26'0 1.0
2017-Jul-11 15:29N 45°60' W 084°25'0 0.2
2017-Jul-11 12:37N 46°00' W 084°26'0 0.0
2017-Jul-11 12:19N 46°00' W 084°26'0 0.0
2017-Jul-11 11:55N 46°00' W 084°26'0 0.0
2017-Jul-11 11:25N 46°00' W 084°26'0 0.0
2017-Jul-11 08:13N 46°00' W 084°26'0 0.0
2017-Jul-11 06:07N 46°00' W 084°26'0 0.0
2017-Jul-11 05:49N 46°00' W 084°26'0 0.0
2017-Jul-11 05:25N 46°00' W 084°26'0 0.0
2017-Jul-11 04:40N 46°00' W 084°26'0 0.0
2017-Jul-11 03:10N 46°00' W 084°26'0 0.0
2017-Jul-11 02:52N 46°00' W 084°26'0 0.0
2017-Jul-10 23:04N 46°00' W 084°26'0 0.0
2017-Jul-10 22:55N 46°00' W 084°26'0 0.0
2017-Jul-10 22:16N 46°00' W 084°26'0 0.1
2017-Jul-10 20:44N 45°60' W 084°26'0 1.2
2017-Jul-10 20:29N 46°00' W 084°26'1 1.2
2017-Jul-10 19:53N 45°59' W 084°26'0 0.3
2017-Jul-10 18:47N 45°59' W 084°26'0 1.1
2017-Jul-10 18:25N 45°59' W 084°26'13 0.4
2017-Jul-09 06:00N 45°48' W 084°36'14 0.6 270 / 81015.510.8 19.9 17.2
2017-Jul-08 08:00N 45°54' W 084°54'   050 / 181014.527.0 16.6 17.2

Dump ship's entire track history